createdAt,value
2019-05-22T00:00:03.452Z,15.70
2019-05-22T00:02:39.079Z,15.65
2019-05-22T00:05:20.228Z,15.62
2019-05-22T00:07:51.068Z,15.52
2019-05-22T00:10:32.950Z,15.52
2019-05-22T00:13:04.285Z,15.51
2019-05-22T00:15:38.404Z,15.49
2019-05-22T00:18:07.275Z,15.52
2019-05-22T00:20:37.357Z,15.55
2019-05-22T00:23:10.668Z,15.52
2019-05-22T00:25:40.941Z,15.70
2019-05-22T00:28:10.894Z,15.70
2019-05-22T00:30:44.431Z,15.74
2019-05-22T00:33:14.844Z,15.83
2019-05-22T00:35:45.434Z,15.91
2019-05-22T00:38:18.181Z,15.83
2019-05-22T00:40:55.139Z,15.76
2019-05-22T00:43:53.129Z,15.70
2019-05-22T00:46:24.563Z,15.74
2019-05-22T00:48:54.460Z,15.71
2019-05-22T00:51:43.472Z,15.66
2019-05-22T00:54:38.649Z,15.66
2019-05-22T00:57:26.855Z,15.81
2019-05-22T01:00:01.493Z,15.70
2019-05-22T01:02:34.186Z,15.71
2019-05-22T01:05:05.035Z,15.49
2019-05-22T01:07:40.194Z,15.23
2019-05-22T01:10:12.170Z,15.31
2019-05-22T01:12:44.191Z,15.37
2019-05-22T01:15:15.683Z,15.34
2019-05-22T01:17:47.310Z,15.29
2019-05-22T01:20:19.004Z,15.39
2019-05-22T01:22:49.931Z,15.35
2019-05-22T01:25:24.522Z,15.30
2019-05-22T01:27:55.591Z,15.18
2019-05-22T01:30:43.246Z,15.12
2019-05-22T01:33:17.209Z,14.94
2019-05-22T01:36:09.242Z,15.00
2019-05-22T01:38:40.448Z,15.05
2019-05-22T01:41:16.221Z,15.11
2019-05-22T01:43:48.624Z,14.95
2019-05-22T01:46:19.018Z,14.92
2019-05-22T01:48:50.776Z,14.89
2019-05-22T01:51:20.740Z,14.87
2019-05-22T01:53:51.895Z,14.87
2019-05-22T01:56:21.717Z,14.79
2019-05-22T01:58:52.364Z,14.67
2019-05-22T02:01:23.737Z,14.60
2019-05-22T02:03:56.826Z,14.52
2019-05-22T02:06:27.113Z,14.45
2019-05-22T02:09:08.379Z,14.43
2019-05-22T02:11:39.392Z,14.44
2019-05-22T02:14:14.228Z,14.44
2019-05-22T02:16:56.547Z,14.59
2019-05-22T02:19:20.344Z,14.65
2019-05-22T02:21:50.461Z,14.54
2019-05-22T02:24:22.197Z,14.45
2019-05-22T02:26:52.742Z,14.21
2019-05-22T02:29:24.027Z,14.16
2019-05-22T02:31:56.106Z,14.35
2019-05-22T02:34:26.378Z,14.36
2019-05-22T02:36:57.740Z,14.25
2019-05-22T02:39:32.822Z,14.22
2019-05-22T02:42:13.180Z,14.28
2019-05-22T02:44:45.227Z,14.15
2019-05-22T02:47:19.577Z,14.07
2019-05-22T02:49:49.277Z,14.04
2019-05-22T02:52:20.348Z,14.05
2019-05-22T02:54:50.252Z,14.07
2019-05-22T02:57:20.617Z,14.17
2019-05-22T02:59:50.839Z,14.19
2019-05-22T03:02:21.452Z,14.24
2019-05-22T03:05:11.680Z,14.28
2019-05-22T03:07:42.042Z,14.33
2019-05-22T03:10:15.939Z,14.40
2019-05-22T03:12:48.671Z,14.41
2019-05-22T03:15:19.976Z,14.34
2019-05-22T03:17:52.076Z,14.29
2019-05-22T03:20:23.948Z,14.19
2019-05-22T03:23:37.881Z,14.16
2019-05-22T03:26:09.224Z,14.16
2019-05-22T03:28:42.299Z,14.20
2019-05-22T03:31:12.931Z,14.33
2019-05-22T03:33:44.632Z,14.36
2019-05-22T03:36:21.241Z,14.38
2019-05-22T03:38:51.953Z,14.41
2019-05-22T03:41:23.010Z,14.41
2019-05-22T03:43:53.306Z,14.46
2019-05-22T03:46:34.295Z,14.56
2019-05-22T03:49:05.546Z,14.77
2019-05-22T03:51:36.242Z,14.83
2019-05-22T03:54:06.588Z,14.92
2019-05-22T03:56:41.022Z,15.01
2019-05-22T03:59:11.280Z,15.07
2019-05-22T04:01:41.001Z,15.15
2019-05-22T04:04:11.212Z,15.28
2019-05-22T04:06:41.377Z,15.40
2019-05-22T04:09:25.586Z,15.41
2019-05-22T04:11:55.977Z,15.42
2019-05-22T04:14:35.596Z,15.56
2019-05-22T04:17:07.249Z,15.66
2019-05-22T04:19:48.350Z,15.84
2019-05-22T04:22:09.408Z,15.96
2019-05-22T04:24:40.982Z,15.88
2019-05-22T04:27:11.932Z,15.97
2019-05-22T04:29:42.963Z,16.08
2019-05-22T04:32:35.456Z,16.12
2019-05-22T04:35:09.342Z,16.27
2019-05-22T04:37:38.767Z,16.44
2019-05-22T04:40:53.269Z,16.50
2019-05-22T04:43:28.637Z,16.55
2019-05-22T04:45:59.284Z,16.58
2019-05-22T04:48:31.474Z,16.34
2019-05-22T04:51:03.567Z,16.25
2019-05-22T04:53:32.945Z,16.36
2019-05-22T04:56:02.519Z,16.56
2019-05-22T04:58:33.794Z,16.75
2019-05-22T05:01:03.205Z,16.73
2019-05-22T05:03:32.899Z,16.90
2019-05-22T05:06:05.991Z,17.07
2019-05-22T05:08:33.767Z,17.24
2019-05-22T05:11:05.382Z,17.36
2019-05-22T05:13:34.913Z,17.51
2019-05-22T05:16:04.823Z,17.63
2019-05-22T05:18:35.287Z,17.77
2019-05-22T05:21:05.694Z,17.87
2019-05-22T05:23:35.306Z,18.09
2019-05-22T05:26:05.215Z,18.21
2019-05-22T05:28:34.930Z,18.29
2019-05-22T05:31:04.954Z,18.36
2019-05-22T05:33:41.199Z,18.45
2019-05-22T05:36:12.923Z,18.33
2019-05-22T05:38:42.378Z,18.42
2019-05-22T05:41:12.215Z,18.49
2019-05-22T05:43:41.805Z,18.65
2019-05-22T05:46:11.794Z,18.70
2019-05-22T05:48:42.077Z,18.84
2019-05-22T05:51:30.293Z,18.90
2019-05-22T05:54:05.771Z,19.01
2019-05-22T05:56:37.629Z,19.13
2019-05-22T05:59:08.273Z,19.19
2019-05-22T06:01:40.583Z,19.25
2019-05-22T06:04:12.501Z,19.27
2019-05-22T06:07:21.006Z,19.39
2019-05-22T06:10:29.513Z,19.42
2019-05-22T06:13:00.439Z,19.46
2019-05-22T06:15:46.460Z,19.54
2019-05-22T06:18:35.595Z,19.59
2019-05-22T06:21:07.364Z,19.62
2019-05-22T06:24:14.372Z,19.62
2019-05-22T06:27:11.441Z,19.62
2019-05-22T06:30:07.267Z,19.72
2019-05-22T06:33:36.534Z,19.77
2019-05-22T06:36:12.239Z,19.69
2019-05-22T06:39:17.352Z,19.70
2019-05-22T06:41:48.711Z,19.83
2019-05-22T06:44:36.138Z,20.01
2019-05-22T06:47:09.287Z,20.00
2019-05-22T06:49:44.275Z,19.97
2019-05-22T06:52:14.492Z,20.05
2019-05-22T06:54:44.591Z,20.22
2019-05-22T06:57:17.081Z,20.18
2019-05-22T06:59:47.671Z,20.21
2019-05-22T07:02:19.066Z,20.35
2019-05-22T07:04:49.864Z,20.45
2019-05-22T07:07:21.996Z,20.40
2019-05-22T07:09:51.959Z,20.51
2019-05-22T07:12:24.172Z,20.60
2019-05-22T07:15:38.151Z,20.63
2019-05-22T07:18:12.461Z,20.70
2019-05-22T07:20:42.058Z,20.73
2019-05-22T07:23:25.329Z,20.93
2019-05-22T07:25:56.085Z,21.17
2019-05-22T07:28:26.805Z,21.46
2019-05-22T07:30:56.974Z,21.68
2019-05-22T07:33:26.591Z,21.68
2019-05-22T07:36:09.243Z,21.60
2019-05-22T07:38:28.231Z,21.68
2019-05-22T07:40:58.324Z,21.73
2019-05-22T07:43:28.671Z,21.90
2019-05-22T07:45:59.567Z,22.12
2019-05-22T07:48:31.000Z,22.26
2019-05-22T07:51:02.623Z,22.48
2019-05-22T07:53:32.277Z,22.69
2019-05-22T07:56:05.467Z,22.89
2019-05-22T07:58:36.003Z,22.92
2019-05-22T08:01:08.031Z,23.05
2019-05-22T08:03:38.317Z,23.12
2019-05-22T08:06:08.499Z,23.25
2019-05-22T08:08:39.922Z,23.37
2019-05-22T08:11:10.584Z,23.37
2019-05-22T08:13:41.748Z,23.36
2019-05-22T08:16:12.155Z,23.32
2019-05-22T08:18:42.982Z,23.15
2019-05-22T08:21:12.715Z,23.18
2019-05-22T08:23:42.598Z,23.32
2019-05-22T08:26:14.185Z,23.40
2019-05-22T08:28:44.060Z,23.52
2019-05-22T08:31:15.709Z,23.48
2019-05-22T08:33:45.271Z,23.52
2019-05-22T08:36:15.821Z,23.73
2019-05-22T08:38:45.663Z,23.89
2019-05-22T08:41:18.033Z,24.10
2019-05-22T08:44:13.755Z,24.24
2019-05-22T08:46:20.030Z,24.39
2019-05-22T08:48:49.817Z,24.52
2019-05-22T08:51:19.437Z,24.67
2019-05-22T08:53:49.679Z,24.85
2019-05-22T08:56:19.821Z,24.94
2019-05-22T08:58:50.032Z,25.04
2019-05-22T09:01:20.305Z,25.28
2019-05-22T09:03:49.897Z,25.46
2019-05-22T09:06:19.459Z,25.46
2019-05-22T09:08:49.451Z,25.42
2019-05-22T09:11:18.953Z,25.63
2019-05-22T09:13:48.564Z,25.81
2019-05-22T09:16:18.442Z,25.97
2019-05-22T09:18:48.450Z,26.28
2019-05-22T09:21:18.318Z,26.61
2019-05-22T09:23:48.319Z,27.21
2019-05-22T09:26:18.496Z,27.78
2019-05-22T09:28:48.388Z,28.48
2019-05-22T09:31:19.200Z,28.91
2019-05-22T09:33:48.979Z,29.33
2019-05-22T09:36:18.771Z,30.22
2019-05-22T09:38:51.944Z,31.45
2019-05-22T09:41:19.513Z,32.25
2019-05-22T09:43:49.543Z,33.30
2019-05-22T09:46:19.286Z,33.43
2019-05-22T09:48:48.984Z,34.13
2019-05-22T09:51:18.716Z,35.05
2019-05-22T09:53:49.003Z,36.38
2019-05-22T09:56:19.279Z,37.56
2019-05-22T09:58:49.322Z,38.83
2019-05-22T10:01:19.227Z,40.21
2019-05-22T10:03:49.013Z,40.95
2019-05-22T10:06:21.776Z,41.03
2019-05-22T10:08:50.956Z,41.30
2019-05-22T10:11:21.402Z,41.05
2019-05-22T10:13:51.406Z,41.23
2019-05-22T10:16:20.894Z,41.83
2019-05-22T10:18:53.382Z,42.36
2019-05-22T10:21:23.295Z,42.65
2019-05-22T10:23:53.123Z,43.28
2019-05-22T10:26:23.240Z,42.67
2019-05-22T10:28:53.121Z,41.48
2019-05-22T10:31:23.685Z,41.16
2019-05-22T10:33:53.163Z,40.54
2019-05-22T10:36:22.878Z,40.22
2019-05-22T10:38:52.455Z,40.17
2019-05-22T10:41:22.119Z,40.24
2019-05-22T10:43:51.765Z,38.72
2019-05-22T10:46:21.135Z,39.06
2019-05-22T10:48:50.855Z,38.15
2019-05-22T10:51:20.841Z,38.54
2019-05-22T10:53:50.823Z,39.48
2019-05-22T10:56:20.629Z,38.75
2019-05-22T10:58:50.455Z,37.73
2019-05-22T11:01:19.988Z,38.10
2019-05-22T11:03:49.976Z,38.08
2019-05-22T11:06:19.716Z,38.33
2019-05-22T11:08:49.293Z,39.31
2019-05-22T11:11:18.726Z,39.98
2019-05-22T11:14:00.792Z,40.50
2019-05-22T11:16:21.784Z,40.82
2019-05-22T11:18:51.983Z,39.87
2019-05-22T11:21:21.647Z,38.40
2019-05-22T11:23:52.965Z,37.64
2019-05-22T11:26:23.215Z,37.27
2019-05-22T11:28:53.384Z,38.05
2019-05-22T11:31:23.578Z,38.43
2019-05-22T11:33:53.756Z,39.07
2019-05-22T11:36:24.144Z,39.24
2019-05-22T11:38:53.624Z,38.64
2019-05-22T11:41:23.625Z,39.22
2019-05-22T11:43:53.415Z,40.13
2019-05-22T11:46:23.225Z,41.07
2019-05-22T11:48:53.610Z,42.00
2019-05-22T11:51:23.520Z,42.50
2019-05-22T11:54:08.161Z,42.12
2019-05-22T11:56:25.045Z,41.92
2019-05-22T11:58:54.741Z,41.47
2019-05-22T12:01:25.088Z,40.28
2019-05-22T12:03:55.356Z,38.88
2019-05-22T12:06:25.283Z,38.57
2019-05-22T12:08:55.004Z,37.56
2019-05-22T12:11:25.857Z,37.15
2019-05-22T12:13:55.567Z,37.71
2019-05-22T12:16:25.797Z,38.10
2019-05-22T12:18:58.661Z,38.17
2019-05-22T12:21:27.425Z,37.21
2019-05-22T12:23:57.091Z,37.08
2019-05-22T12:26:27.086Z,36.27
2019-05-22T12:28:56.772Z,35.36
2019-05-22T12:31:26.898Z,34.41
2019-05-22T12:33:56.913Z,32.29
2019-05-22T12:36:28.416Z,31.10
2019-05-22T12:38:58.967Z,30.68
2019-05-22T12:41:30.199Z,30.82
2019-05-22T12:44:00.147Z,31.11
2019-05-22T12:46:31.058Z,31.40
2019-05-22T12:49:01.527Z,32.11
2019-05-22T12:51:32.319Z,32.63
2019-05-22T12:54:02.503Z,33.30
2019-05-22T12:56:32.707Z,33.74
2019-05-22T12:59:03.531Z,32.98
2019-05-22T13:01:34.718Z,32.11
2019-05-22T13:04:06.970Z,31.85
2019-05-22T13:06:36.832Z,31.80
2019-05-22T13:09:10.783Z,31.62
2019-05-22T13:11:41.951Z,31.38
2019-05-22T13:14:12.358Z,31.21
2019-05-22T13:16:48.394Z,31.04
2019-05-22T13:19:14.596Z,30.79
2019-05-22T13:21:46.344Z,30.82
2019-05-22T13:24:20.008Z,30.83
2019-05-22T13:26:51.290Z,30.72
2019-05-22T13:29:21.421Z,30.70
2019-05-22T13:31:52.581Z,30.49
2019-05-22T13:34:23.919Z,30.32
2019-05-22T13:36:56.875Z,30.68
2019-05-22T13:39:26.618Z,31.10
2019-05-22T13:41:56.446Z,31.70
2019-05-22T13:44:26.443Z,32.33
2019-05-22T13:46:56.518Z,33.09
2019-05-22T13:49:28.471Z,33.67
2019-05-22T13:51:58.384Z,33.28
2019-05-22T13:54:28.328Z,32.97
2019-05-22T13:56:57.945Z,32.81
2019-05-22T13:59:27.749Z,32.45
2019-05-22T14:01:58.098Z,32.54
2019-05-22T14:04:27.698Z,32.79
2019-05-22T14:06:57.676Z,32.48
2019-05-22T14:09:29.180Z,31.77
2019-05-22T14:11:59.096Z,31.33
2019-05-22T14:14:29.099Z,30.92
2019-05-22T14:16:59.026Z,30.51
2019-05-22T14:19:28.715Z,30.48
2019-05-22T14:21:58.429Z,30.18
2019-05-22T14:24:28.354Z,29.41
2019-05-22T14:26:58.273Z,29.41
2019-05-22T14:29:27.881Z,29.20
2019-05-22T14:31:57.631Z,28.88
2019-05-22T14:34:27.868Z,28.40
2019-05-22T14:36:58.286Z,28.64
2019-05-22T14:39:28.196Z,28.53
2019-05-22T14:41:57.862Z,28.83
2019-05-22T14:44:27.555Z,29.01
2019-05-22T14:47:11.847Z,29.21
2019-05-22T14:49:29.011Z,29.21
2019-05-22T14:51:58.609Z,29.13
2019-05-22T14:54:28.664Z,29.04
2019-05-22T14:56:58.539Z,28.72
2019-05-22T14:59:28.634Z,28.49
2019-05-22T15:01:58.638Z,28.04
2019-05-22T15:04:28.181Z,28.03
2019-05-22T15:06:57.997Z,28.14
2019-05-22T15:09:28.146Z,28.10
2019-05-22T15:11:58.528Z,28.13
2019-05-22T15:14:28.306Z,27.97
2019-05-22T15:16:57.725Z,27.93
2019-05-22T15:19:27.894Z,27.73
2019-05-22T15:21:58.434Z,27.50
2019-05-22T15:24:28.041Z,27.45
2019-05-22T15:26:57.779Z,27.23
2019-05-22T15:29:27.853Z,27.18
2019-05-22T15:31:58.020Z,26.90
2019-05-22T15:34:28.543Z,27.00
2019-05-22T15:36:59.413Z,26.96
2019-05-22T15:39:30.857Z,26.79
2019-05-22T15:42:01.851Z,26.74
2019-05-22T15:44:33.119Z,26.76
2019-05-22T15:47:02.879Z,26.90
2019-05-22T15:49:34.074Z,27.07
2019-05-22T15:52:09.139Z,27.14
2019-05-22T15:54:40.311Z,27.20
2019-05-22T15:57:11.948Z,27.20
2019-05-22T15:59:43.486Z,27.20
2019-05-22T16:02:16.322Z,27.12
2019-05-22T16:04:46.276Z,27.01
2019-05-22T16:07:17.431Z,26.82
2019-05-22T16:09:47.522Z,26.67
2019-05-22T16:12:18.495Z,26.49
2019-05-22T16:14:49.036Z,26.40
2019-05-22T16:17:20.756Z,26.34
2019-05-22T16:19:50.824Z,26.17
2019-05-22T16:22:20.494Z,26.16
2019-05-22T16:24:50.540Z,26.18
2019-05-22T16:27:20.627Z,26.08
2019-05-22T16:29:50.193Z,26.01
2019-05-22T16:32:22.069Z,25.83
2019-05-22T16:34:53.229Z,25.64
2019-05-22T16:37:23.287Z,25.52
2019-05-22T16:39:52.884Z,25.30
2019-05-22T16:42:23.241Z,25.18
2019-05-22T16:44:53.244Z,25.05
2019-05-22T16:47:24.327Z,25.05
2019-05-22T16:49:55.380Z,25.03
2019-05-22T16:52:27.056Z,24.79
2019-05-22T16:54:57.629Z,24.81
2019-05-22T16:57:27.591Z,24.73
2019-05-22T16:59:58.005Z,24.76
2019-05-22T17:02:28.293Z,24.66
2019-05-22T17:05:01.775Z,24.52
2019-05-22T17:07:29.487Z,24.34
2019-05-22T17:09:59.220Z,24.57
2019-05-22T17:12:30.299Z,24.52
2019-05-22T17:15:00.618Z,24.46
2019-05-22T17:17:30.287Z,24.20
2019-05-22T17:20:00.045Z,24.25
2019-05-22T17:22:29.799Z,24.25
2019-05-22T17:24:59.294Z,24.26
2019-05-22T17:27:30.079Z,24.17
2019-05-22T17:29:59.976Z,24.14
2019-05-22T17:32:31.431Z,24.08
2019-05-22T17:35:00.979Z,24.05
2019-05-22T17:37:33.839Z,24.03
2019-05-22T17:40:06.308Z,23.96
2019-05-22T17:42:37.312Z,23.94
2019-05-22T17:45:09.664Z,23.91
2019-05-22T17:47:40.085Z,23.90
2019-05-22T17:50:25.949Z,23.92
2019-05-22T17:52:43.841Z,23.90
2019-05-22T17:55:14.960Z,23.91
2019-05-22T17:57:45.315Z,23.85
2019-05-22T18:00:25.594Z,23.91
2019-05-22T18:02:55.119Z,23.82
2019-05-22T18:05:25.747Z,23.70
2019-05-22T18:07:56.302Z,23.80
2019-05-22T18:10:27.469Z,23.73
2019-05-22T18:12:56.936Z,23.72
2019-05-22T18:15:26.695Z,23.72
2019-05-22T18:17:57.350Z,23.71
2019-05-22T18:20:41.415Z,23.51
2019-05-22T18:22:59.165Z,23.49
2019-05-22T18:25:28.967Z,23.33
2019-05-22T18:27:59.073Z,23.26
2019-05-22T18:30:28.959Z,23.25
2019-05-22T18:32:58.606Z,23.21
2019-05-22T18:35:28.180Z,23.13
2019-05-22T18:37:58.281Z,23.10
2019-05-22T18:40:28.003Z,23.11
2019-05-22T18:42:57.471Z,23.15
2019-05-22T18:45:27.789Z,23.11
2019-05-22T18:47:57.524Z,23.10
2019-05-22T18:50:27.641Z,23.01
2019-05-22T18:52:57.173Z,23.04
2019-05-22T18:55:27.188Z,23.08
2019-05-22T18:57:56.914Z,22.98
2019-05-22T19:00:27.066Z,23.06
2019-05-22T19:02:57.027Z,22.98
2019-05-22T19:05:29.703Z,22.97
2019-05-22T19:07:59.442Z,22.98
2019-05-22T19:10:29.887Z,22.90
2019-05-22T19:13:00.228Z,22.93
2019-05-22T19:15:30.287Z,22.94
2019-05-22T19:18:00.020Z,22.85
2019-05-22T19:20:29.537Z,22.92
2019-05-22T19:23:01.590Z,22.99
2019-05-22T19:25:31.265Z,22.99
2019-05-22T19:28:00.894Z,23.07
2019-05-22T19:30:30.999Z,22.95
2019-05-22T19:33:00.857Z,22.92
2019-05-22T19:35:30.878Z,22.85
2019-05-22T19:38:00.839Z,22.86
2019-05-22T19:40:31.018Z,22.80
2019-05-22T19:43:00.881Z,22.77
2019-05-22T19:45:31.245Z,22.74
2019-05-22T19:48:01.848Z,22.68
2019-05-22T19:50:33.045Z,22.67
2019-05-22T19:53:18.326Z,22.71
2019-05-22T19:55:35.851Z,22.68
2019-05-22T19:58:05.777Z,22.60
2019-05-22T20:00:35.863Z,22.66
2019-05-22T20:03:06.125Z,22.71
2019-05-22T20:05:36.291Z,22.65
2019-05-22T20:08:07.219Z,22.45
2019-05-22T20:10:37.458Z,22.18
2019-05-22T20:13:08.004Z,21.93
2019-05-22T20:15:38.697Z,21.63
2019-05-22T20:18:08.611Z,21.50
2019-05-22T20:20:38.653Z,21.39
2019-05-22T20:23:09.287Z,21.28
2019-05-22T20:25:39.247Z,21.22
2019-05-22T20:28:10.223Z,21.20
2019-05-22T20:30:40.164Z,21.15
2019-05-22T20:33:10.244Z,21.12
2019-05-22T20:35:39.931Z,21.06
2019-05-22T20:38:10.322Z,21.02
2019-05-22T20:40:40.700Z,21.00
2019-05-22T20:43:10.784Z,20.97
2019-05-22T20:45:42.961Z,20.92
2019-05-22T20:48:17.472Z,20.86
2019-05-22T20:50:47.656Z,20.85
2019-05-22T20:53:19.825Z,20.79
2019-05-22T20:55:50.415Z,20.74
2019-05-22T20:58:21.038Z,20.68
2019-05-22T21:00:52.329Z,20.63
2019-05-22T21:03:23.131Z,20.54
2019-05-22T21:05:55.936Z,20.47
2019-05-22T21:08:26.731Z,20.38
2019-05-22T21:10:58.697Z,20.30
2019-05-22T21:13:28.304Z,20.24
2019-05-22T21:15:58.545Z,20.21
2019-05-22T21:18:34.638Z,20.17
2019-05-22T21:21:05.289Z,20.20
2019-05-22T21:23:35.708Z,20.17
2019-05-22T21:26:07.169Z,20.21
2019-05-22T21:28:37.287Z,20.14
2019-05-22T21:31:07.553Z,20.15
2019-05-22T21:33:37.165Z,20.15
2019-05-22T21:36:09.785Z,20.17
2019-05-22T21:38:40.401Z,20.21
2019-05-22T21:41:11.361Z,20.23
2019-05-22T21:43:40.838Z,20.22
2019-05-22T21:46:10.582Z,20.17
2019-05-22T21:48:40.999Z,20.18
2019-05-22T21:51:11.078Z,20.16
2019-05-22T21:53:41.405Z,20.05
2019-05-22T21:56:11.133Z,20.12
2019-05-22T21:58:40.960Z,20.06
2019-05-22T22:01:20.491Z,20.11
2019-05-22T22:04:06.285Z,20.08
2019-05-22T22:06:36.177Z,20.04
2019-05-22T22:09:07.676Z,20.04
2019-05-22T22:11:38.569Z,19.98
2019-05-22T22:14:09.043Z,19.94
2019-05-22T22:16:40.819Z,19.91
2019-05-22T22:19:11.674Z,19.92
2019-05-22T22:21:41.517Z,19.89
2019-05-22T22:24:11.790Z,19.92
2019-05-22T22:26:42.349Z,19.83
2019-05-22T22:29:12.533Z,19.80
2019-05-22T22:31:42.577Z,19.77
2019-05-22T22:34:23.268Z,19.75
2019-05-22T22:36:54.659Z,19.70
2019-05-22T22:39:24.471Z,19.70
2019-05-22T22:41:57.586Z,19.65
2019-05-22T22:44:29.029Z,19.64
2019-05-22T22:47:06.385Z,19.59
2019-05-22T22:49:37.992Z,19.61
2019-05-22T22:52:08.357Z,19.55
2019-05-22T22:54:38.653Z,19.58
2019-05-22T22:57:09.213Z,19.55
2019-05-22T22:59:38.720Z,19.55
2019-05-22T23:02:11.567Z,19.52
2019-05-22T23:04:42.899Z,19.54
2019-05-22T23:07:15.318Z,19.52
2019-05-22T23:09:45.339Z,19.51
2019-05-22T23:12:16.046Z,19.51
2019-05-22T23:14:50.591Z,19.48
2019-05-22T23:17:20.566Z,19.45
2019-05-22T23:19:49.723Z,19.42
2019-05-22T23:22:24.939Z,19.38
2019-05-22T23:24:57.445Z,19.30
2019-05-22T23:27:29.222Z,19.24
2019-05-22T23:29:59.856Z,19.20
2019-05-22T23:32:31.152Z,19.12
2019-05-22T23:35:02.077Z,19.01
2019-05-22T23:37:31.824Z,18.90
2019-05-22T23:40:01.622Z,18.76
2019-05-22T23:42:35.100Z,18.67
2019-05-22T23:45:08.243Z,18.64
2019-05-22T23:47:58.753Z,18.64
2019-05-22T23:50:29.546Z,18.53
2019-05-22T23:52:59.621Z,18.42
2019-05-22T23:55:30.455Z,18.32
2019-05-22T23:58:00.163Z,18.35
